createdAt,value
2019-03-22T00:01:00.987Z,3.90
2019-03-22T00:02:36.579Z,3.90
2019-03-22T00:04:12.165Z,3.80
2019-03-22T00:05:47.818Z,3.80
2019-03-22T00:07:23.689Z,3.80
2019-03-22T00:08:59.255Z,3.80
2019-03-22T00:10:35.729Z,3.80
2019-03-22T00:12:11.315Z,3.80
2019-03-22T00:13:46.901Z,3.70
2019-03-22T00:15:22.865Z,3.70
2019-03-22T00:16:58.735Z,3.70
2019-03-22T00:18:34.964Z,3.80
2019-03-22T00:20:11.016Z,3.80
2019-03-22T00:21:47.178Z,3.80
2019-03-22T00:23:23.051Z,3.80
2019-03-22T00:24:58.682Z,3.90
2019-03-22T00:26:34.244Z,3.80
2019-03-22T00:28:10.408Z,3.80
2019-03-22T00:29:46.024Z,3.80
2019-03-22T00:31:21.608Z,3.80
2019-03-22T00:32:57.219Z,3.90
2019-03-22T00:34:32.800Z,3.90
2019-03-22T00:36:08.777Z,3.90
2019-03-22T00:37:44.356Z,3.90
2019-03-22T00:39:19.934Z,3.90
2019-03-22T00:40:55.499Z,3.80
2019-03-22T00:42:31.181Z,3.80
2019-03-22T00:44:06.826Z,3.80
2019-03-22T00:45:43.252Z,3.70
2019-03-22T00:47:18.830Z,3.70
2019-03-22T00:48:54.430Z,3.60
2019-03-22T06:48:50.353Z,3.60
2019-03-22T06:50:25.958Z,7.80
2019-03-22T06:52:01.558Z,7.90
2019-03-22T06:53:37.203Z,8.00
2019-03-22T06:55:12.994Z,8.20
2019-03-22T06:56:48.605Z,8.70
2019-03-22T06:58:24.435Z,8.70
2019-03-22T07:00:06.320Z,8.60
2019-03-22T07:01:37.689Z,9.00
2019-03-22T07:03:13.284Z,9.60
2019-03-22T07:04:48.977Z,10.10
2019-03-22T07:06:24.575Z,10.20
2019-03-22T07:08:00.296Z,10.00
2019-03-22T07:09:35.896Z,9.60
2019-03-22T07:11:11.760Z,9.30
2019-03-22T07:12:47.627Z,9.30
2019-03-22T07:14:23.272Z,9.50
2019-03-22T07:15:58.871Z,9.70
2019-03-22T07:17:34.467Z,10.00
2019-03-22T07:19:10.071Z,10.50
2019-03-22T07:20:45.957Z,10.70
2019-03-22T07:22:21.571Z,10.40
2019-03-22T07:23:57.425Z,10.50
2019-03-22T07:25:33.051Z,10.50
2019-03-22T07:27:08.671Z,10.30
2019-03-22T07:28:44.292Z,10.10
2019-03-22T07:30:20.319Z,10.20
2019-03-22T07:31:56.043Z,10.70
2019-03-22T07:33:31.974Z,10.80
2019-03-22T07:35:07.782Z,10.80
2019-03-22T07:36:43.401Z,11.00
2019-03-22T07:38:19.041Z,11.10
2019-03-22T07:39:54.661Z,11.00
2019-03-22T07:41:30.592Z,10.70
2019-03-22T07:43:06.583Z,10.60
2019-03-22T07:44:42.450Z,11.10
2019-03-22T07:46:18.310Z,11.30
2019-03-22T07:47:55.826Z,11.60
2019-03-22T07:49:31.549Z,11.90
2019-03-22T07:51:07.155Z,12.10
2019-03-22T07:52:42.850Z,12.60
2019-03-22T07:55:53.525Z,13.20
2019-03-22T07:57:29.302Z,14.50
2019-03-22T07:59:04.924Z,14.20
2019-03-22T08:40:18.917Z,14.30
2019-03-22T08:41:54.523Z,18.40
2019-03-22T08:43:30.153Z,18.60
2019-03-22T08:45:06.674Z,18.40
2019-03-22T08:46:44.882Z,18.50
2019-03-22T08:48:19.898Z,18.10
2019-03-22T08:49:55.508Z,17.60
2019-03-22T08:51:31.192Z,18.10
2019-03-22T08:53:06.876Z,18.70
2019-03-22T08:54:43.040Z,18.70
2019-03-22T08:56:18.645Z,18.90
2019-03-22T08:57:54.509Z,18.90
2019-03-22T08:59:30.367Z,19.20
2019-03-22T09:02:41.366Z,19.50
2019-03-22T09:04:20.215Z,20.30
2019-03-22T09:05:55.802Z,20.60
2019-03-22T09:23:27.513Z,21.10
2019-03-22T09:25:03.155Z,22.90
2019-03-22T09:26:47.529Z,23.00
2019-03-22T09:28:16.149Z,23.40
2019-03-22T09:29:51.769Z,24.00
2019-03-22T09:31:27.671Z,24.50
2019-03-22T09:33:03.607Z,25.00
2019-03-22T09:34:39.487Z,24.40
2019-03-22T09:36:15.156Z,23.90
2019-03-22T09:37:50.786Z,24.00
2019-03-22T09:39:27.990Z,24.20
2019-03-22T09:41:03.546Z,24.60
2019-03-22T09:42:39.166Z,24.10
2019-03-22T09:44:15.099Z,24.20
2019-03-22T09:45:50.721Z,24.70
2019-03-22T09:47:26.338Z,25.00
2019-03-22T09:49:02.004Z,25.50
2019-03-22T09:50:37.639Z,25.70
2019-03-22T10:11:15.643Z,25.80
2019-03-22T10:12:51.289Z,27.20
2019-03-22T10:14:26.960Z,27.20
2019-03-22T10:16:02.633Z,26.90
2019-03-22T10:17:38.496Z,26.10
2019-03-22T10:19:14.130Z,24.80
2019-03-22T10:20:49.832Z,24.60
2019-03-22T10:22:25.517Z,25.00
2019-03-22T10:24:01.350Z,25.40
2019-03-22T10:25:36.913Z,25.70
2019-03-22T10:27:12.807Z,25.60
2019-03-22T10:28:48.541Z,25.60
2019-03-22T10:30:24.392Z,25.00
2019-03-22T10:32:00.068Z,25.10
2019-03-22T10:33:36.205Z,25.60
2019-03-22T10:35:25.088Z,26.40
2019-03-22T10:36:49.413Z,27.00
2019-03-22T10:38:31.716Z,27.50
2019-03-22T10:40:02.429Z,27.80
2019-03-22T10:41:38.512Z,28.20
2019-03-22T10:43:14.389Z,26.30
2019-03-22T10:44:49.971Z,24.50
2019-03-22T10:46:25.586Z,24.70
2019-03-22T10:48:01.204Z,25.30
2019-03-22T10:49:36.800Z,26.10
2019-03-22T10:51:12.651Z,26.50
2019-03-22T10:52:48.506Z,27.10
2019-03-22T10:54:24.546Z,27.10
2019-03-22T10:56:00.444Z,27.40
2019-03-22T10:57:36.063Z,27.50
2019-03-22T10:59:18.735Z,27.50
2019-03-22T11:00:54.538Z,27.90
2019-03-22T11:02:30.140Z,28.40
2019-03-22T11:05:42.638Z,28.10
2019-03-22T11:07:18.510Z,28.00
2019-03-22T11:08:54.088Z,25.00
2019-03-22T11:18:36.804Z,23.80
2019-03-22T11:20:06.024Z,25.00
2019-03-22T11:21:41.914Z,26.00
2019-03-22T11:23:17.517Z,27.00
2019-03-22T11:24:53.142Z,27.80
2019-03-22T11:26:29.277Z,28.50
2019-03-22T11:28:06.186Z,28.70
2019-03-22T11:29:41.858Z,27.80
2019-03-22T11:31:17.551Z,27.70
2019-03-22T11:32:53.142Z,28.20
2019-03-22T11:34:28.754Z,28.80
2019-03-22T11:36:04.535Z,29.10
2019-03-22T11:37:40.641Z,29.60
2019-03-22T11:39:16.395Z,29.80
2019-03-22T11:40:52.010Z,29.30
2019-03-22T11:42:27.677Z,29.60
2019-03-22T11:44:03.316Z,28.80
2019-03-22T11:45:39.491Z,27.50
2019-03-22T11:47:15.257Z,27.20
2019-03-22T11:48:50.860Z,27.70
2019-03-22T11:51:00.740Z,28.50
2019-03-22T11:52:39.716Z,29.20
2019-03-22T11:55:01.110Z,30.00
2019-03-22T11:56:43.717Z,30.40
2019-03-22T11:58:19.477Z,31.00
2019-03-22T12:00:22.945Z,31.00
2019-03-22T12:05:00.699Z,32.20
2019-03-22T12:06:38.411Z,33.30
2019-03-22T12:08:47.454Z,31.40
2019-03-22T12:10:38.439Z,29.70
2019-03-22T12:12:23.132Z,28.00
2019-03-22T12:15:03.505Z,29.30
2019-03-22T12:16:56.853Z,30.60
2019-03-22T12:18:56.435Z,32.40
2019-03-22T12:20:34.498Z,33.10
2019-03-22T12:22:34.082Z,33.20
2019-03-22T12:24:26.978Z,33.00
2019-03-22T12:27:05.137Z,32.80
2019-03-22T12:29:05.423Z,33.10
2019-03-22T12:30:41.206Z,30.50
2019-03-22T12:32:17.311Z,28.70
2019-03-22T12:33:53.008Z,27.40
2019-03-22T12:35:30.366Z,26.10
2019-03-22T12:37:06.353Z,26.10
2019-03-22T12:38:41.965Z,26.80
2019-03-22T12:40:19.300Z,28.10
2019-03-22T12:41:54.901Z,29.10
2019-03-22T12:43:30.501Z,29.90
2019-03-22T12:45:09.941Z,29.60
2019-03-22T12:46:45.548Z,26.90
2019-03-22T12:48:21.218Z,26.80
2019-03-22T12:49:56.809Z,27.40
2019-03-22T12:51:32.688Z,28.50
2019-03-22T12:53:08.285Z,28.90
2019-03-22T12:54:43.985Z,29.20
2019-03-22T12:56:19.662Z,29.70
2019-03-22T12:57:55.344Z,30.30
2019-03-22T12:59:30.932Z,30.70
2019-03-22T13:01:06.649Z,31.00
2019-03-22T13:02:42.786Z,31.00
2019-03-22T13:04:18.659Z,30.90
2019-03-22T13:05:54.328Z,30.70
2019-03-22T13:07:30.298Z,30.60
2019-03-22T13:09:09.556Z,30.90
2019-03-22T13:10:57.921Z,30.90
2019-03-22T13:12:33.842Z,31.20
2019-03-22T13:14:09.945Z,30.80
2019-03-22T13:15:45.543Z,30.30
2019-03-22T13:17:21.404Z,30.10
2019-03-22T13:18:57.035Z,29.50
2019-03-22T13:22:07.982Z,28.20
2019-03-22T13:23:43.592Z,27.20
2019-03-22T13:25:21.233Z,27.10
2019-03-22T13:33:18.279Z,25.20
2019-03-22T13:34:53.879Z,27.30
2019-03-22T13:36:29.470Z,27.20
2019-03-22T13:38:05.365Z,26.90
2019-03-22T13:39:40.960Z,26.30
2019-03-22T13:41:16.555Z,25.60
2019-03-22T13:43:03.767Z,26.10
2019-03-22T13:44:39.236Z,26.70
2019-03-22T13:46:14.971Z,26.40
2019-03-22T13:51:00.809Z,24.90
2019-03-22T13:52:36.568Z,26.10
2019-03-22T13:54:12.277Z,27.10
2019-03-22T13:55:48.050Z,26.90
2019-03-22T13:57:23.823Z,27.30
2019-03-22T13:58:59.507Z,27.70
2019-03-22T14:00:35.809Z,28.30
2019-03-22T14:02:11.536Z,28.80
2019-03-22T14:03:47.354Z,28.90
2019-03-22T14:05:23.349Z,28.80
2019-03-22T14:06:59.051Z,28.60
2019-03-22T14:08:35.856Z,28.00
2019-03-22T14:10:20.937Z,26.00
2019-03-22T14:11:56.594Z,25.70
2019-03-22T14:13:32.379Z,24.80
2019-03-22T14:15:08.733Z,25.00
2019-03-22T15:33:05.119Z,24.60
2019-03-22T15:34:59.779Z,20.20
2019-03-22T15:36:53.568Z,20.00
2019-03-22T15:38:46.218Z,19.90
2019-03-22T15:40:22.153Z,19.90
2019-03-22T15:41:58.022Z,20.00
2019-03-22T15:43:33.622Z,20.10
2019-03-22T15:45:11.713Z,20.10
2019-03-22T15:46:48.918Z,20.10
2019-03-22T15:48:24.473Z,19.80
2019-03-22T15:50:00.462Z,19.70
2019-03-22T17:15:51.094Z,19.70
2019-03-22T17:17:26.698Z,15.70
2019-03-22T17:19:02.370Z,15.60
2019-03-22T17:20:38.358Z,15.40
2019-03-22T17:33:19.982Z,15.20
2019-03-22T17:34:55.585Z,14.10
2019-03-22T17:36:31.194Z,14.00
2019-03-22T17:38:06.900Z,13.90
2019-03-22T17:39:42.544Z,13.70
2019-03-22T17:41:18.166Z,13.70
2019-03-22T17:42:53.852Z,13.60
2019-03-22T17:44:29.694Z,13.50
2019-03-22T17:46:05.412Z,13.50
2019-03-22T17:47:41.279Z,13.40
2019-03-22T17:49:17.254Z,13.40
2019-03-22T17:50:52.869Z,13.30
2019-03-22T17:52:28.572Z,13.20
2019-03-22T17:54:04.367Z,13.10
2019-03-22T17:55:39.968Z,13.00
2019-03-22T17:57:18.835Z,13.00
2019-03-22T17:58:53.038Z,12.90
2019-03-22T18:00:29.046Z,12.80
2019-03-22T18:02:04.726Z,12.70
2019-03-22T18:03:40.649Z,12.60
2019-03-22T18:05:16.434Z,12.50
2019-03-22T18:06:52.298Z,12.60
2019-03-22T18:08:27.897Z,12.60
2019-03-22T18:10:04.446Z,12.50
2019-03-22T18:11:40.089Z,12.40
2019-03-22T18:13:15.920Z,12.40
2019-03-22T18:14:51.521Z,12.30
2019-03-22T18:16:27.485Z,12.30
2019-03-22T18:18:03.580Z,12.20
2019-03-22T18:19:40.174Z,12.10
2019-03-22T18:21:16.004Z,12.10
2019-03-22T18:22:51.614Z,12.00
2019-03-22T18:24:27.505Z,11.90
2019-03-22T18:26:03.616Z,11.90
2019-03-22T18:27:39.373Z,11.80
2019-03-22T18:29:15.088Z,11.70
2019-03-22T18:30:50.951Z,11.70
2019-03-22T18:32:28.169Z,11.70
2019-03-22T18:34:03.934Z,11.60
2019-03-22T18:35:39.531Z,11.50
2019-03-22T18:37:15.184Z,11.50
2019-03-22T18:38:50.783Z,11.50
2019-03-22T18:40:26.387Z,11.50
2019-03-22T18:42:02.063Z,11.50
2019-03-22T18:43:38.046Z,11.40
2019-03-22T18:45:14.860Z,11.30
2019-03-22T18:46:51.669Z,11.30
2019-03-22T18:48:27.275Z,11.30
2019-03-22T18:50:02.917Z,11.30
2019-03-22T18:51:38.775Z,11.30
2019-03-22T18:53:14.380Z,11.20
2019-03-22T18:54:50.451Z,11.20
2019-03-22T18:56:26.351Z,11.20
2019-03-22T18:58:01.971Z,11.10
2019-03-22T18:59:37.961Z,11.10
2019-03-22T19:01:13.559Z,11.10
2019-03-22T19:02:49.451Z,11.10
2019-03-22T19:04:25.134Z,11.10
2019-03-22T19:06:01.096Z,11.00
2019-03-22T19:07:36.802Z,11.10
2019-03-22T19:09:12.438Z,11.00
2019-03-22T19:10:48.051Z,11.00
2019-03-22T19:12:24.019Z,11.00
2019-03-22T19:14:00.192Z,11.10
2019-03-22T19:15:35.799Z,11.10
2019-03-22T19:17:11.392Z,11.10
2019-03-22T19:18:47.048Z,11.10
2019-03-22T19:20:22.666Z,11.10
2019-03-22T19:21:58.515Z,11.00
2019-03-22T19:23:34.418Z,10.90
2019-03-22T19:25:10.393Z,10.90
2019-03-22T19:26:46.394Z,10.80
2019-03-22T19:28:21.994Z,10.80
2019-03-22T19:29:57.599Z,10.70
2019-03-22T19:31:33.188Z,10.60
2019-03-22T19:52:09.349Z,10.50
2019-03-22T19:53:44.958Z,9.70
2019-03-22T19:55:20.558Z,9.60
2019-03-22T19:56:56.416Z,9.60
2019-03-22T19:58:32.273Z,9.60
2019-03-22T20:00:08.786Z,9.60
2019-03-22T20:01:44.392Z,9.60
2019-03-22T20:03:19.999Z,9.50
2019-03-22T20:05:04.435Z,9.50
2019-03-22T20:06:33.172Z,9.40
2019-03-22T20:08:08.776Z,9.40
2019-03-22T20:09:44.386Z,9.40
2019-03-22T20:11:20.007Z,9.30
2019-03-22T20:12:55.857Z,9.30
2019-03-22T20:14:31.692Z,9.30
2019-03-22T20:16:07.326Z,9.10
2019-03-22T20:17:43.015Z,9.10
2019-03-22T20:19:18.876Z,9.10
2019-03-22T20:20:54.475Z,9.00
2019-03-22T20:33:35.746Z,8.90
2019-03-22T22:08:50.021Z,8.30
